Time;durP1;ratioP1;P1;durP2;ratioP2;P2;SDS_P1;SDS_P2;PMS_P1;PMS_P2;Temp;Humidity;BMP_temperature;BMP_pressure;BME280_temperature;BME280_humidity;BME280_pressure;Samples;Min_cycle;Max_cycle;Signal;HPM_P1;HPM_P2
2021/09/22 00:00:57;;;;;;;7.38;3.30;;;;;;;;;;4866211;28;20726;-57
2021/09/22 00:03:22;;;;;;;7.93;3.47;;;;;;;;;;4869440;28;20854;-57
2021/09/22 00:05:47;;;;;;;6.80;3.70;;;;;;;;;;4867752;28;20040;-57
2021/09/22 00:08:13;;;;;;;7.33;3.40;;;;;;;;;;4869934;28;20860;-57
2021/09/22 00:10:38;;;;;;;7.60;3.72;;;;;;;;;;4871542;28;23824;-56
2021/09/22 00:13:03;;;;;;;6.63;3.70;;;;;;;;;;4873453;28;20072;-57
2021/09/22 00:15:29;;;;;;;7.20;4.00;;;;;;;;;;4870970;28;20840;-57
2021/09/22 00:17:54;;;;;;;6.18;3.78;;;;;;;;;;4867053;28;20299;-57
2021/09/22 00:20:23;;;;;;;6.57;3.65;;;;;;;;;;4870792;28;20666;-56
2021/09/22 00:22:48;;;;;;;7.50;3.78;;;;;;;;;;4869236;28;20780;-57
2021/09/22 00:25:14;;;;;;;8.68;4.20;;;;;;;;;;4872994;28;20766;-57
2021/09/22 00:27:40;;;;;;;7.95;3.97;;;;;;;;;;4870215;28;20041;-57
2021/09/22 00:30:06;;;;;;;7.18;3.58;;;;;;;;;;4874017;28;24316;-55
2021/09/22 00:32:31;;;;;;;7.07;3.95;;;;;;;;;;4866307;28;20730;-57
2021/09/22 00:34:57;;;;;;;7.43;3.90;;;;;;;;;;4872199;28;20025;-57
2021/09/22 00:37:22;;;;;;;9.63;3.90;;;;;;;;;;4870702;28;20120;-57
2021/09/22 00:39:47;;;;;;;8.63;4.40;;;;;;;;;;4871620;28;21748;-57
2021/09/22 00:42:13;;;;;;;7.38;3.80;;;;;;;;;;4871912;28;20887;-57
2021/09/22 00:44:58;;;;;;;9.35;3.90;;;;;;;;;;4871585;28;20251;-57
2021/09/22 00:47:24;;;;;;;7.25;4.00;;;;;;;;;;4868426;28;20576;-57
2021/09/22 00:49:50;;;;;;;8.38;3.70;;;;;;;;;;4872585;28;20875;-57
2021/09/22 00:52:16;;;;;;;8.75;4.00;;;;;;;;;;4867347;28;20059;-57
2021/09/22 00:54:42;;;;;;;6.10;3.50;;;;;;;;;;4870729;28;20706;-57
2021/09/22 00:57:07;;;;;;;8.25;4.80;;;;;;;;;;4871596;28;20513;-57
2021/09/22 00:59:32;;;;;;;7.20;4.07;;;;;;;;;;4868421;28;21207;-57
2021/09/22 01:01:58;;;;;;;11.20;4.40;;;;;;;;;;4872272;28;20727;-56
2021/09/22 01:04:23;;;;;;;10.00;3.85;;;;;;;;;;4867316;28;21095;-56
2021/09/22 01:06:49;;;;;;;7.10;4.00;;;;;;;;;;4871957;28;20826;-56
2021/09/22 01:09:14;;;;;;;8.57;4.13;;;;;;;;;;4868751;28;20841;-57
2021/09/22 01:11:40;;;;;;;8.73;4.70;;;;;;;;;;4871266;28;20048;-57
2021/09/22 01:14:07;;;;;;;7.35;4.05;;;;;;;;;;4871027;28;20268;-57
2021/09/22 01:16:39;;;;;;;7.30;4.07;;;;;;;;;;4867964;28;22227;-57
2021/09/22 01:19:04;;;;;;;8.30;4.15;;;;;;;;;;4872763;28;20057;-56
2021/09/22 01:21:29;;;;;;;8.30;4.43;;;;;;;;;;4875622;28;20037;-57
2021/09/22 01:23:55;;;;;;;7.83;4.13;;;;;;;;;;4884403;28;20030;-57
2021/09/22 01:26:20;;;;;;;7.87;3.97;;;;;;;;;;4864361;28;20276;-57
2021/09/22 01:28:45;;;;;;;9.82;3.70;;;;;;;;;;4867968;28;20276;-57
2021/09/22 01:31:10;;;;;;;8.77;3.83;;;;;;;;;;4870121;28;20034;-57
2021/09/22 01:33:36;;;;;;;8.52;3.78;;;;;;;;;;4867857;28;23694;-57
2021/09/22 01:36:01;;;;;;;7.45;4.10;;;;;;;;;;4870682;28;20787;-57
2021/09/22 01:38:27;;;;;;;6.47;3.70;;;;;;;;;;4871656;28;20061;-57
2021/09/22 01:41:03;;;;;;;7.97;4.13;;;;;;;;;;4873176;28;21441;-56
2021/09/22 01:43:29;;;;;;;7.15;3.45;;;;;;;;;;4870295;28;20861;-57
2021/09/22 01:45:55;;;;;;;7.57;3.83;;;;;;;;;;4871399;28;20880;-57
2021/09/22 01:48:20;;;;;;;8.18;3.58;;;;;;;;;;4875554;28;20387;-57
2021/09/22 01:50:45;;;;;;;9.02;3.40;;;;;;;;;;4868111;28;20050;-57
2021/09/22 01:53:11;;;;;;;6.38;3.33;;;;;;;;;;4869950;28;20099;-55
2021/09/22 01:55:36;;;;;;;6.90;3.40;;;;;;;;;;4860802;28;20035;-57
2021/09/22 01:58:02;;;;;;;7.70;3.28;;;;;;;;;;4865699;28;20145;-57
2021/09/22 02:00:28;;;;;;;6.22;3.20;;;;;;;;;;4867727;28;20874;-56
2021/09/22 02:02:53;;;;;;;7.10;2.85;;;;;;;;;;4866842;28;20022;-57
2021/09/22 02:05:18;;;;;;;6.18;3.20;;;;;;;;;;4867399;28;20025;-57
2021/09/22 02:07:44;;;;;;;8.40;3.22;;;;;;;;;;4865507;28;20028;-57
2021/09/22 02:10:09;;;;;;;6.55;2.90;;;;;;;;;;4867414;28;20034;-58
2021/09/22 02:12:35;;;;;;;7.50;3.35;;;;;;;;;;4866303;28;20033;-57
2021/09/22 02:15:00;;;;;;;7.10;3.53;;;;;;;;;;4864959;28;20030;-57
2021/09/22 02:17:26;;;;;;;5.72;3.47;;;;;;;;;;4866704;28;20018;-56
2021/09/22 02:19:51;;;;;;;8.68;4.03;;;;;;;;;;4867794;28;20042;-56
2021/09/22 02:22:16;;;;;;;7.97;4.03;;;;;;;;;;4869468;28;20444;-57
2021/09/22 02:24:43;;;;;;;7.32;3.92;;;;;;;;;;4871152;28;24361;-56
2021/09/22 02:27:11;;;;;;;8.45;4.38;;;;;;;;;;4870229;28;20056;-57
2021/09/22 02:29:37;;;;;;;8.15;3.97;;;;;;;;;;4866949;28;20090;-57
2021/09/22 02:32:03;;;;;;;8.80;4.20;;;;;;;;;;4867947;28;20116;-57
2021/09/22 02:34:29;;;;;;;7.03;4.38;;;;;;;;;;4869375;28;24365;-57
2021/09/22 02:36:54;;;;;;;6.65;3.97;;;;;;;;;;4870514;28;20026;-57
2021/09/22 02:39:20;;;;;;;8.57;4.43;;;;;;;;;;4869498;28;20736;-57
2021/09/22 02:41:45;;;;;;;8.63;4.38;;;;;;;;;;4871028;28;20559;-57
2021/09/22 02:44:10;;;;;;;9.25;4.70;;;;;;;;;;4869533;28;20032;-57
2021/09/22 02:46:36;;;;;;;8.13;4.60;;;;;;;;;;4869043;28;21236;-57
2021/09/22 02:49:01;;;;;;;8.05;4.55;;;;;;;;;;4871296;28;20036;-57
2021/09/22 02:51:27;;;;;;;8.18;4.15;;;;;;;;;;4868525;28;20473;-57
2021/09/22 02:53:52;;;;;;;6.28;4.28;;;;;;;;;;4869498;28;20026;-57
2021/09/22 02:56:18;;;;;;;6.97;4.07;;;;;;;;;;4867846;28;20037;-57
2021/09/22 02:58:43;;;;;;;11.25;4.80;;;;;;;;;;4870697;28;20236;-58
2021/09/22 03:01:08;;;;;;;7.78;4.22;;;;;;;;;;4869158;28;20025;-56
2021/09/22 03:03:33;;;;;;;9.45;4.53;;;;;;;;;;4868715;28;21065;-57
2021/09/22 03:05:59;;;;;;;10.70;4.07;;;;;;;;;;4868197;28;20026;-57
2021/09/22 03:08:24;;;;;;;8.95;4.45;;;;;;;;;;4868161;28;20034;-57
2021/09/22 03:10:49;;;;;;;8.75;4.25;;;;;;;;;;4867460;28;20061;-58
2021/09/22 03:13:15;;;;;;;9.35;4.13;;;;;;;;;;4868242;28;20029;-57
2021/09/22 03:15:40;;;;;;;7.10;3.75;;;;;;;;;;4869598;28;20053;-58
2021/09/22 03:18:06;;;;;;;6.93;3.92;;;;;;;;;;4870039;28;24495;-57
2021/09/22 03:20:31;;;;;;;8.73;4.22;;;;;;;;;;4869927;28;20088;-57
2021/09/22 03:22:57;;;;;;;9.75;3.92;;;;;;;;;;4868806;28;23852;-57
2021/09/22 03:25:22;;;;;;;7.97;3.78;;;;;;;;;;4867641;28;20111;-58
2021/09/22 03:27:47;;;;;;;5.70;3.75;;;;;;;;;;4867809;28;20072;-57
2021/09/22 03:30:13;;;;;;;8.65;3.83;;;;;;;;;;4866343;28;20026;-57
2021/09/22 03:32:38;;;;;;;6.65;3.70;;;;;;;;;;4867724;28;20758;-57
2021/09/22 03:35:04;;;;;;;5.93;3.60;;;;;;;;;;4869184;28;20038;-57
2021/09/22 03:37:29;;;;;;;6.13;3.45;;;;;;;;;;4871043;28;20025;-57
2021/09/22 03:39:55;;;;;;;5.82;3.05;;;;;;;;;;4870790;28;20909;-57
2021/09/22 03:42:20;;;;;;;5.80;3.10;;;;;;;;;;4868724;28;20037;-58
2021/09/22 03:44:45;;;;;;;6.97;2.90;;;;;;;;;;4874166;28;21073;-57
2021/09/22 03:47:11;;;;;;;5.25;2.97;;;;;;;;;;4875209;28;20946;-58
2021/09/22 03:49:36;;;;;;;6.93;3.17;;;;;;;;;;4873955;28;20133;-57
2021/09/22 03:52:01;;;;;;;6.53;3.10;;;;;;;;;;4873132;28;20044;-57
2021/09/22 03:54:26;;;;;;;6.53;3.05;;;;;;;;;;4873459;28;21102;-58
2021/09/22 03:56:52;;;;;;;7.03;2.90;;;;;;;;;;4871571;28;20464;-58
2021/09/22 03:59:17;;;;;;;5.43;2.92;;;;;;;;;;4888338;28;20037;-57
2021/09/22 04:01:42;;;;;;;7.13;2.95;;;;;;;;;;4870097;28;20080;-57
2021/09/22 04:04:08;;;;;;;9.50;3.40;;;;;;;;;;4874222;28;20030;-57
2021/09/22 04:06:33;;;;;;;7.60;3.47;;;;;;;;;;4874612;28;20272;-56
2021/09/22 04:08:59;;;;;;;7.57;3.65;;;;;;;;;;4874383;28;20026;-58
2021/09/22 04:11:24;;;;;;;8.13;3.35;;;;;;;;;;4874592;28;20048;-57
2021/09/22 04:13:49;;;;;;;7.55;3.30;;;;;;;;;;4869638;28;20132;-56
2021/09/22 04:16:15;;;;;;;6.07;3.45;;;;;;;;;;4873847;28;20542;-57
2021/09/22 04:18:40;;;;;;;5.82;3.30;;;;;;;;;;4874145;28;20565;-56
2021/09/22 04:21:05;;;;;;;5.90;3.08;;;;;;;;;;4872821;28;23545;-56
2021/09/22 04:23:31;;;;;;;5.68;3.35;;;;;;;;;;4866960;28;21589;-56
2021/09/22 04:25:56;;;;;;;7.27;3.17;;;;;;;;;;4869480;28;20026;-56
2021/09/22 04:28:22;;;;;;;7.03;3.17;;;;;;;;;;4868961;28;20802;-56
2021/09/22 04:30:47;;;;;;;8.70;3.10;;;;;;;;;;4869300;28;20292;-56
2021/09/22 04:33:12;;;;;;;7.90;3.35;;;;;;;;;;4871806;28;20055;-56
2021/09/22 04:35:38;;;;;;;6.28;3.47;;;;;;;;;;4864041;28;20451;-56
2021/09/22 04:38:05;;;;;;;9.88;4.03;;;;;;;;;;4862654;28;20547;-56
2021/09/22 04:40:31;;;;;;;7.72;3.72;;;;;;;;;;4868462;28;20022;-57
2021/09/22 04:42:57;;;;;;;8.68;3.75;;;;;;;;;;4869599;28;24286;-56
2021/09/22 04:45:23;;;;;;;8.68;3.53;;;;;;;;;;4868354;28;20040;-56
2021/09/22 04:47:48;;;;;;;6.60;3.55;;;;;;;;;;4869145;28;21162;-57
2021/09/22 04:50:13;;;;;;;6.07;3.45;;;;;;;;;;4882366;28;20758;-56
2021/09/22 04:52:39;;;;;;;9.50;3.50;;;;;;;;;;4868791;28;20333;-56
2021/09/22 04:55:04;;;;;;;6.78;3.50;;;;;;;;;;4868677;28;20034;-56
2021/09/22 04:57:29;;;;;;;19.05;10.88;;;;;;;;;;4867164;28;21529;-56
2021/09/22 04:59:55;;;;;;;11.40;5.10;;;;;;;;;;4877393;28;20084;-56
2021/09/22 05:02:20;;;;;;;9.90;4.47;;;;;;;;;;4869406;28;20488;-56
2021/09/22 05:04:45;;;;;;;7.93;3.88;;;;;;;;;;4868560;28;20032;-59
2021/09/22 05:07:11;;;;;;;13.43;4.20;;;;;;;;;;4868273;28;20025;-56
2021/09/22 05:09:36;;;;;;;8.73;4.25;;;;;;;;;;4864116;28;20468;-56
2021/09/22 05:12:01;;;;;;;8.27;3.97;;;;;;;;;;4866278;28;23957;-56
2021/09/22 05:14:27;;;;;;;8.98;4.30;;;;;;;;;;4864148;28;21861;-58
2021/09/22 05:16:52;;;;;;;6.80;3.93;;;;;;;;;;4866327;28;20909;-58
2021/09/22 05:19:19;;;;;;;5.80;3.40;;;;;;;;;;4866031;28;20269;-58
2021/09/22 05:21:45;;;;;;;5.75;3.38;;;;;;;;;;4868507;28;21519;-58
2021/09/22 05:24:10;;;;;;;5.78;3.03;;;;;;;;;;4867251;28;20022;-56
2021/09/22 05:26:37;;;;;;;6.70;3.22;;;;;;;;;;4881627;28;20126;-58
2021/09/22 05:29:02;;;;;;;7.78;3.00;;;;;;;;;;4868779;28;20026;-56
2021/09/22 05:31:28;;;;;;;6.03;3.55;;;;;;;;;;4865814;28;20490;-56
2021/09/22 05:33:53;;;;;;;7.18;3.33;;;;;;;;;;4866053;28;20420;-56
2021/09/22 05:36:18;;;;;;;6.20;3.17;;;;;;;;;;4865973;28;20545;-56
2021/09/22 05:38:44;;;;;;;7.97;3.20;;;;;;;;;;4870284;28;20281;-56
2021/09/22 05:41:09;;;;;;;5.55;3.30;;;;;;;;;;4870097;28;20793;-56
2021/09/22 05:43:34;;;;;;;6.13;2.83;;;;;;;;;;4867529;28;20222;-59
2021/09/22 05:46:01;;;;;;;6.60;3.10;;;;;;;;;;4870600;28;20691;-56
2021/09/22 05:48:27;;;;;;;6.15;3.40;;;;;;;;;;4866942;28;20428;-56
2021/09/22 05:50:52;;;;;;;7.25;3.40;;;;;;;;;;4866825;28;20571;-57
2021/09/22 05:53:17;;;;;;;6.57;3.45;;;;;;;;;;4867978;28;20098;-57
2021/09/22 05:55:43;;;;;;;5.35;2.65;;;;;;;;;;4863421;28;20033;-57
2021/09/22 05:58:08;;;;;;;4.50;2.40;;;;;;;;;;4868024;28;23800;-56
2021/09/22 06:00:33;;;;;;;7.13;2.70;;;;;;;;;;4864867;28;20654;-57
2021/09/22 06:03:04;;;;;;;7.15;3.08;;;;;;;;;;4868503;28;21675;-57
2021/09/22 06:05:30;;;;;;;5.68;2.55;;;;;;;;;;4878820;28;20095;-57
2021/09/22 06:07:55;;;;;;;5.20;2.30;;;;;;;;;;4866208;28;20037;-56
2021/09/22 06:10:20;;;;;;;4.93;2.20;;;;;;;;;;4867366;28;21437;-57
2021/09/22 06:12:45;;;;;;;5.25;2.22;;;;;;;;;;4866576;28;20285;-57
2021/09/22 06:15:11;;;;;;;5.97;2.55;;;;;;;;;;4868775;28;20025;-56
2021/09/22 06:17:36;;;;;;;7.75;3.05;;;;;;;;;;4866055;28;20464;-56
2021/09/22 06:20:02;;;;;;;4.55;2.38;;;;;;;;;;4867379;28;20662;-57
2021/09/22 06:22:27;;;;;;;4.93;2.47;;;;;;;;;;4867510;28;20036;-57
2021/09/22 06:24:53;;;;;;;6.05;2.40;;;;;;;;;;4866572;28;20022;-57
2021/09/22 06:27:19;;;;;;;5.53;2.10;;;;;;;;;;4869620;28;23578;-57
2021/09/22 06:29:44;;;;;;;6.25;2.50;;;;;;;;;;4869210;28;20049;-57
2021/09/22 06:32:10;;;;;;;9.98;3.08;;;;;;;;;;4868191;28;21248;-57
2021/09/22 06:34:35;;;;;;;5.90;3.00;;;;;;;;;;4866799;28;20500;-57
2021/09/22 06:37:00;;;;;;;6.22;2.50;;;;;;;;;;4867851;28;20423;-57
2021/09/22 06:39:25;;;;;;;6.45;2.30;;;;;;;;;;4868264;28;20038;-57
2021/09/22 06:41:51;;;;;;;5.90;2.30;;;;;;;;;;4864631;28;21088;-57
2021/09/22 06:44:16;;;;;;;6.15;2.42;;;;;;;;;;4869098;28;21059;-58
2021/09/22 06:46:41;;;;;;;4.63;2.40;;;;;;;;;;4870397;28;20026;-57
2021/09/22 06:49:07;;;;;;;6.72;2.50;;;;;;;;;;4869406;28;21371;-57
2021/09/22 06:51:32;;;;;;;4.55;2.40;;;;;;;;;;4861148;28;20044;-57
2021/09/22 06:53:57;;;;;;;4.15;2.10;;;;;;;;;;4870304;28;20624;-57
2021/09/22 06:56:24;;;;;;;4.97;2.70;;;;;;;;;;4866120;28;20063;-57
2021/09/22 06:58:50;;;;;;;5.68;2.30;;;;;;;;;;4866065;28;20268;-57
2021/09/22 07:01:15;;;;;;;4.35;2.30;;;;;;;;;;4867401;28;20571;-57
2021/09/22 07:03:40;;;;;;;5.03;2.60;;;;;;;;;;4863931;28;24667;-57
2021/09/22 07:06:06;;;;;;;5.85;2.70;;;;;;;;;;4868607;28;20680;-58
2021/09/22 07:08:31;;;;;;;5.53;2.90;;;;;;;;;;4867908;28;20820;-57
2021/09/22 07:10:56;;;;;;;5.30;2.83;;;;;;;;;;4866463;28;20518;-58
2021/09/22 07:13:23;;;;;;;5.13;2.50;;;;;;;;;;4876115;28;20151;-57
2021/09/22 07:15:48;;;;;;;5.93;2.60;;;;;;;;;;4862670;28;20686;-57
2021/09/22 07:18:18;;;;;;;6.13;2.65;;;;;;;;;;4866934;28;21031;-57
2021/09/22 07:20:43;;;;;;;6.45;2.80;;;;;;;;;;4862909;28;20112;-58
2021/09/22 07:23:08;;;;;;;6.00;2.47;;;;;;;;;;4865696;28;20033;-58
2021/09/22 07:25:34;;;;;;;6.90;2.45;;;;;;;;;;4863547;28;20701;-57
2021/09/22 07:27:59;;;;;;;6.45;2.30;;;;;;;;;;4865109;28;20353;-57
2021/09/22 07:30:24;;;;;;;6.47;2.43;;;;;;;;;;4864027;28;20550;-57
2021/09/22 07:32:50;;;;;;;6.40;2.67;;;;;;;;;;4858678;28;20292;-57
2021/09/22 07:35:16;;;;;;;6.70;2.83;;;;;;;;;;4866791;28;24399;-57
2021/09/22 07:37:42;;;;;;;5.60;3.10;;;;;;;;;;4864969;28;20061;-58
2021/09/22 07:40:08;;;;;;;6.15;2.42;;;;;;;;;;4868948;28;20557;-57
2021/09/22 07:42:33;;;;;;;5.07;2.47;;;;;;;;;;4866477;28;20518;-57
2021/09/22 07:44:59;;;;;;;6.15;3.20;;;;;;;;;;4867882;28;20480;-57
2021/09/22 07:47:24;;;;;;;6.78;3.90;;;;;;;;;;4864653;28;20698;-56
2021/09/22 07:49:50;;;;;;;9.73;5.10;;;;;;;;;;4868352;28;20405;-56
2021/09/22 07:52:15;;;;;;;7.40;3.30;;;;;;;;;;4866445;28;20042;-56
2021/09/22 07:54:41;;;;;;;5.32;2.65;;;;;;;;;;4867577;28;20064;-56
2021/09/22 07:57:07;;;;;;;6.82;3.08;;;;;;;;;;4869807;28;20164;-56
2021/09/22 07:59:32;;;;;;;7.45;2.70;;;;;;;;;;4881843;28;20030;-56
2021/09/22 08:01:58;;;;;;;5.65;2.42;;;;;;;;;;4867798;28;20527;-56
2021/09/22 08:04:23;;;;;;;6.68;2.40;;;;;;;;;;4866451;28;20148;-56
2021/09/22 08:06:48;;;;;;;7.33;2.23;;;;;;;;;;4868926;28;20034;-56
2021/09/22 08:09:14;;;;;;;5.68;2.78;;;;;;;;;;4869686;28;22158;-56
2021/09/22 08:11:39;;;;;;;4.70;2.63;;;;;;;;;;4863988;28;20030;-56
2021/09/22 08:14:05;;;;;;;5.43;2.58;;;;;;;;;;4866514;28;24375;-56
2021/09/22 08:16:31;;;;;;;5.70;2.22;;;;;;;;;;4869744;28;20109;-56
2021/09/22 08:18:56;;;;;;;6.78;2.60;;;;;;;;;;4864158;28;20247;-56
2021/09/22 08:21:21;;;;;;;5.20;2.50;;;;;;;;;;4868481;28;20025;-56
2021/09/22 08:23:47;;;;;;;5.55;2.42;;;;;;;;;;4867455;28;20276;-56
2021/09/22 08:26:12;;;;;;;5.43;2.50;;;;;;;;;;4867733;28;20041;-57
2021/09/22 08:28:37;;;;;;;6.35;2.47;;;;;;;;;;4867972;28;20161;-57
2021/09/22 08:31:03;;;;;;;5.35;2.40;;;;;;;;;;4867944;28;20062;-57
2021/09/22 08:33:28;;;;;;;7.07;2.65;;;;;;;;;;4869741;28;20718;-56
2021/09/22 08:35:53;;;;;;;6.60;2.60;;;;;;;;;;4868613;28;20069;-56
2021/09/22 08:38:19;;;;;;;6.43;2.80;;;;;;;;;;4871450;28;20673;-57
2021/09/22 08:40:44;;;;;;;5.15;2.30;;;;;;;;;;4871668;28;21263;-55
2021/09/22 08:43:11;;;;;;;5.82;2.50;;;;;;;;;;4870142;28;20478;-58
2021/09/22 08:45:36;;;;;;;5.28;2.55;;;;;;;;;;4867787;28;23835;-56
2021/09/22 08:48:02;;;;;;;7.28;2.80;;;;;;;;;;4866797;28;20693;-57
2021/09/22 08:50:28;;;;;;;5.38;2.50;;;;;;;;;;4871168;28;20215;-57
2021/09/22 08:52:53;;;;;;;5.78;2.40;;;;;;;;;;4869589;28;21129;-56
2021/09/22 08:55:18;;;;;;;7.50;2.50;;;;;;;;;;4871676;28;20850;-57
2021/09/22 08:57:44;;;;;;;5.87;2.83;;;;;;;;;;4868036;28;20403;-57
2021/09/22 09:00:10;;;;;;;6.05;2.85;;;;;;;;;;4871570;28;20257;-57
2021/09/22 09:02:37;;;;;;;6.57;2.83;;;;;;;;;;4872122;28;20116;-56
2021/09/22 09:05:05;;;;;;;4.78;2.50;;;;;;;;;;4871414;28;20480;-56
2021/09/22 09:07:31;;;;;;;6.40;3.10;;;;;;;;;;4867528;28;20682;-56
2021/09/22 09:10:16;;;;;;;6.50;3.58;;;;;;;;;;4868707;28;20026;-56
2021/09/22 09:12:42;;;;;;;6.82;4.20;;;;;;;;;;4869019;28;20789;-57
2021/09/22 09:15:08;;;;;;;7.13;3.88;;;;;;;;;;4866365;28;20057;-57
2021/09/22 09:17:47;;;;;;;6.93;3.80;;;;;;;;;;4870723;28;20086;-57
2021/09/22 09:20:20;;;;;;;6.78;4.00;;;;;;;;;;4868430;28;20026;-57
2021/09/22 09:23:06;;;;;;;6.85;4.32;;;;;;;;;;4876309;28;20041;-57
2021/09/22 09:25:35;;;;;;;6.80;4.38;;;;;;;;;;4869227;28;20022;-57
2021/09/22 09:28:14;;;;;;;7.82;4.60;;;;;;;;;;4865522;28;20080;-57
2021/09/22 09:30:43;;;;;;;8.67;4.83;;;;;;;;;;4868883;28;20162;-57
2021/09/22 09:33:10;;;;;;;9.45;5.57;;;;;;;;;;4865614;28;20519;-57
2021/09/22 09:35:35;;;;;;;8.05;5.38;;;;;;;;;;4869370;28;20029;-57
2021/09/22 09:38:00;;;;;;;8.30;5.18;;;;;;;;;;4870658;28;21068;-57
2021/09/22 09:40:30;;;;;;;9.53;5.37;;;;;;;;;;4868830;28;24544;-57
2021/09/22 09:42:57;;;;;;;9.45;5.05;;;;;;;;;;4866929;28;20699;-57
2021/09/22 09:45:24;;;;;;;8.65;5.32;;;;;;;;;;4866487;28;20490;-54
2021/09/22 09:48:02;;;;;;;9.90;6.10;;;;;;;;;;4869874;28;20038;-57
2021/09/22 09:50:27;;;;;;;7.68;5.20;;;;;;;;;;4867747;28;20735;-56
2021/09/22 09:52:57;;;;;;;8.10;5.53;;;;;;;;;;4865372;28;20622;-56
2021/09/22 09:55:26;;;;;;;10.02;6.07;;;;;;;;;;4868839;28;20030;-56
2021/09/22 09:57:55;;;;;;;10.23;6.13;;;;;;;;;;4866133;28;20088;-57
2021/09/22 10:00:22;;;;;;;11.97;8.53;;;;;;;;;;4882138;28;20057;-57
2021/09/22 10:02:47;;;;;;;13.75;8.50;;;;;;;;;;4863445;28;20265;-57
2021/09/22 10:05:12;;;;;;;10.75;8.10;;;;;;;;;;4864432;28;20792;-56
2021/09/22 10:07:39;;;;;;;13.00;8.25;;;;;;;;;;4865621;28;21557;-57
2021/09/22 10:10:05;;;;;;;16.73;12.10;;;;;;;;;;4862010;28;24499;-57
2021/09/22 10:12:30;;;;;;;16.92;12.75;;;;;;;;;;4866727;28;20085;-57
2021/09/22 10:14:56;;;;;;;15.13;12.20;;;;;;;;;;4866093;28;20030;-56
2021/09/22 10:17:23;;;;;;;17.15;13.57;;;;;;;;;;4866698;28;20048;-56
2021/09/22 10:19:49;;;;;;;16.73;11.85;;;;;;;;;;4863180;28;24123;-56
2021/09/22 10:22:15;;;;;;;15.85;12.65;;;;;;;;;;4864820;28;20034;-56
2021/09/22 10:24:41;;;;;;;15.73;12.48;;;;;;;;;;4880752;28;20573;-59
2021/09/22 10:27:06;;;;;;;16.50;12.40;;;;;;;;;;4883501;28;20036;-56
2021/09/22 10:29:40;;;;;;;17.95;13.10;;;;;;;;;;4887321;28;20026;-56
2021/09/22 10:32:06;;;;;;;17.23;13.32;;;;;;;;;;4884171;28;20321;-58
2021/09/22 10:34:33;;;;;;;13.77;11.73;;;;;;;;;;4886213;28;20112;-58
2021/09/22 10:37:00;;;;;;;15.23;12.00;;;;;;;;;;4885389;28;20075;-58
2021/09/22 10:39:38;;;;;;;17.20;13.13;;;;;;;;;;4884817;28;20279;-58
2021/09/22 10:42:38;;;;;;;15.60;13.02;;;;;;;;;;4883361;28;20049;-58
2021/09/22 10:45:12;;;;;;;16.27;12.00;;;;;;;;;;4849361;28;20044;-58
2021/09/22 10:47:38;;;;;;;15.68;11.90;;;;;;;;;;4882586;28;20022;-58
2021/09/22 10:50:04;;;;;;;14.30;11.23;;;;;;;;;;4872361;28;20853;-58
2021/09/22 10:52:39;;;;;;;15.02;11.63;;;;;;;;;;4868658;28;20037;-58
2021/09/22 10:55:10;;;;;;;13.18;10.60;;;;;;;;;;4866880;28;20459;-58
2021/09/22 10:57:36;;;;;;;12.32;9.30;;;;;;;;;;4868650;28;20034;-58
2021/09/22 11:00:09;;;;;;;12.88;10.07;;;;;;;;;;4866450;28;20122;-58
2021/09/22 11:02:49;;;;;;;11.88;9.15;;;;;;;;;;4867936;28;20029;-58
2021/09/22 11:05:33;;;;;;;16.23;9.80;;;;;;;;;;4868247;28;20021;-58
2021/09/22 11:08:00;;;;;;;12.38;9.05;;;;;;;;;;4868965;28;20156;-58
2021/09/22 11:10:35;;;;;;;11.55;8.60;;;;;;;;;;4867208;28;20589;-57
2021/09/22 11:13:23;;;;;;;13.00;8.95;;;;;;;;;;4870186;28;20409;-56
2021/09/22 11:15:50;;;;;;;12.13;9.20;;;;;;;;;;4863056;28;20883;-58
2021/09/22 11:18:16;;;;;;;13.27;10.60;;;;;;;;;;4865892;28;20566;-59
2021/09/22 11:20:50;;;;;;;12.07;10.07;;;;;;;;;;4863192;28;20445;-56
2021/09/22 11:23:16;;;;;;;12.82;8.90;;;;;;;;;;4874658;28;20038;-56
2021/09/22 11:25:41;;;;;;;13.57;8.93;;;;;;;;;;4869758;28;20517;-56
2021/09/22 11:28:07;;;;;;;11.57;8.38;;;;;;;;;;4872140;28;20677;-56
2021/09/22 11:30:33;;;;;;;12.23;9.32;;;;;;;;;;4866547;28;21845;-57
2021/09/22 11:32:58;;;;;;;12.55;8.88;;;;;;;;;;4870184;28;20065;-58
2021/09/22 11:35:28;;;;;;;11.73;8.23;;;;;;;;;;4879112;28;21319;-58
2021/09/22 11:37:56;;;;;;;11.60;8.10;;;;;;;;;;4882443;28;21223;-58
2021/09/22 11:40:24;;;;;;;9.63;7.43;;;;;;;;;;4871346;28;20607;-59
2021/09/22 11:42:55;;;;;;;10.77;8.05;;;;;;;;;;4871855;28;20044;-59
2021/09/22 11:45:25;;;;;;;10.10;7.43;;;;;;;;;;4868352;28;21517;-57
2021/09/22 11:47:50;;;;;;;9.77;7.80;;;;;;;;;;4868157;28;20673;-59
2021/09/22 11:50:27;;;;;;;9.75;7.13;;;;;;;;;;4876123;28;20033;-59
2021/09/22 11:52:53;;;;;;;10.00;6.85;;;;;;;;;;4880820;28;20762;-58
2021/09/22 11:55:22;;;;;;;11.38;7.38;;;;;;;;;;4880787;28;20076;-59
2021/09/22 11:57:47;;;;;;;13.18;8.13;;;;;;;;;;4877642;28;20662;-59
2021/09/22 12:00:17;;;;;;;10.73;8.70;;;;;;;;;;4874389;28;21252;-59
2021/09/22 12:02:42;;;;;;;11.93;8.82;;;;;;;;;;4866800;28;20038;-59
2021/09/22 12:05:12;;;;;;;10.63;8.18;;;;;;;;;;4869268;28;20061;-59
2021/09/22 12:07:38;;;;;;;12.38;8.93;;;;;;;;;;4871268;28;20068;-58
2021/09/22 12:10:03;;;;;;;11.23;7.20;;;;;;;;;;4878638;28;20349;-59
2021/09/22 12:12:31;;;;;;;10.35;7.10;;;;;;;;;;4870743;28;20582;-59
2021/09/22 12:14:57;;;;;;;10.57;7.95;;;;;;;;;;4874250;28;20144;-59
2021/09/22 12:17:28;;;;;;;9.32;7.22;;;;;;;;;;4873721;28;20832;-58
2021/09/22 12:19:53;;;;;;;10.40;7.13;;;;;;;;;;4874476;28;20334;-59
2021/09/22 12:22:38;;;;;;;13.38;7.95;;;;;;;;;;4869662;28;20674;-59
2021/09/22 12:25:04;;;;;;;11.50;7.40;;;;;;;;;;4876309;28;20118;-59
2021/09/22 12:27:31;;;;;;;13.23;7.45;;;;;;;;;;4863274;28;20387;-59
2021/09/22 12:29:56;;;;;;;8.95;6.68;;;;;;;;;;4874250;28;20395;-59
2021/09/22 12:32:27;;;;;;;11.25;6.85;;;;;;;;;;4878246;28;20352;-59
2021/09/22 12:34:52;;;;;;;9.07;6.72;;;;;;;;;;4879520;28;20057;-59
2021/09/22 12:37:22;;;;;;;10.13;6.32;;;;;;;;;;4883109;28;20023;-58
2021/09/22 12:39:52;;;;;;;10.90;6.72;;;;;;;;;;4876603;28;20156;-58
2021/09/22 12:42:18;;;;;;;11.95;6.97;;;;;;;;;;4886510;28;20034;-59
2021/09/22 12:44:54;;;;;;;9.35;5.75;;;;;;;;;;4888219;28;20502;-59
2021/09/22 12:47:20;;;;;;;8.63;5.85;;;;;;;;;;4884619;28;20755;-58
2021/09/22 12:50:05;;;;;;;8.70;5.97;;;;;;;;;;4887481;28;23574;-59
2021/09/22 12:52:30;;;;;;;8.68;5.53;;;;;;;;;;4888201;28;20038;-59
2021/09/22 12:54:55;;;;;;;8.27;5.53;;;;;;;;;;4885630;28;20018;-59
2021/09/22 12:57:21;;;;;;;8.40;5.13;;;;;;;;;;4887451;28;20073;-58
2021/09/22 12:59:46;;;;;;;9.35;5.20;;;;;;;;;;4883993;28;20452;-59
2021/09/22 13:02:26;;;;;;;9.10;5.60;;;;;;;;;;4878410;28;20037;-59
2021/09/22 13:04:51;;;;;;;9.10;5.03;;;;;;;;;;4872955;28;20347;-59
2021/09/22 13:07:20;;;;;;;7.90;5.25;;;;;;;;;;4867015;28;20998;-60
2021/09/22 13:09:45;;;;;;;7.88;5.40;;;;;;;;;;4872305;28;20104;-61
2021/09/22 13:12:25;;;;;;;10.67;6.13;;;;;;;;;;4881004;28;20030;-60
2021/09/22 13:14:51;;;;;;;9.13;5.85;;;;;;;;;;4862198;28;20037;-60
2021/09/22 13:17:16;;;;;;;10.00;5.90;;;;;;;;;;4874734;28;20049;-59
2021/09/22 13:19:41;;;;;;;8.37;5.50;;;;;;;;;;4870691;28;20543;-60
2021/09/22 13:22:08;;;;;;;8.83;5.30;;;;;;;;;;4881850;28;20638;-60
2021/09/22 13:24:34;;;;;;;9.02;5.35;;;;;;;;;;4883882;28;20360;-58
2021/09/22 13:27:00;;;;;;;9.93;6.10;;;;;;;;;;4889105;28;20018;-58
2021/09/22 13:29:26;;;;;;;7.03;4.80;;;;;;;;;;4893521;28;20786;-57
2021/09/22 13:31:56;;;;;;;8.00;6.50;;;;;;;;;;4887998;28;20558;-58
2021/09/22 13:34:27;;;;;;;9.75;6.00;;;;;;;;;;4887390;28;20930;-57
2021/09/22 13:36:53;;;;;;;7.60;5.53;;;;;;;;;;4890741;28;20033;-58
2021/09/22 13:39:18;;;;;;;9.07;5.60;;;;;;;;;;4890626;28;20117;-58
2021/09/22 13:41:44;;;;;;;8.00;5.32;;;;;;;;;;4884504;28;21482;-58
2021/09/22 13:44:09;;;;;;;11.25;5.57;;;;;;;;;;4883466;28;20717;-57
2021/09/22 13:46:35;;;;;;;14.95;5.72;;;;;;;;;;4886173;28;20034;-58
2021/09/22 13:49:02;;;;;;;7.72;5.10;;;;;;;;;;4886434;28;20715;-58
2021/09/22 13:51:27;;;;;;;12.13;5.65;;;;;;;;;;4888045;28;23984;-58
2021/09/22 13:53:52;;;;;;;10.27;5.07;;;;;;;;;;4888990;28;20757;-58
2021/09/22 13:56:18;;;;;;;8.68;5.82;;;;;;;;;;4890082;28;23774;-58
2021/09/22 13:58:43;;;;;;;8.82;6.07;;;;;;;;;;4887552;28;20431;-58
2021/09/22 14:01:09;;;;;;;7.53;4.82;;;;;;;;;;4889598;28;20052;-58
2021/09/22 14:03:34;;;;;;;7.57;5.05;;;;;;;;;;4887921;28;20033;-58
2021/09/22 14:06:00;;;;;;;7.68;4.28;;;;;;;;;;4884748;28;20168;-58
2021/09/22 14:08:26;;;;;;;8.50;4.78;;;;;;;;;;4889328;28;20754;-58
2021/09/22 14:10:52;;;;;;;9.07;5.13;;;;;;;;;;4890036;28;20584;-58
2021/09/22 14:13:17;;;;;;;8.80;5.57;;;;;;;;;;4888568;28;20571;-59
2021/09/22 14:15:47;;;;;;;8.48;5.20;;;;;;;;;;4883865;28;20026;-58
2021/09/22 14:18:12;;;;;;;;;;;;;;;;;;4890590;28;21792;-58
2021/09/22 14:20:39;;;;;;;8.73;5.40;;;;;;;;;;4889402;28;19956;-58
2021/09/22 14:23:06;;;;;;;8.80;5.10;;;;;;;;;;4887128;28;20049;-58
2021/09/22 14:25:31;;;;;;;8.00;5.15;;;;;;;;;;4887803;28;20532;-58
2021/09/22 14:27:57;;;;;;;8.40;4.80;;;;;;;;;;4888268;28;20550;-58
2021/09/22 14:30:23;;;;;;;8.38;5.30;;;;;;;;;;4890587;28;20034;-58
2021/09/22 14:32:51;;;;;;;9.05;6.03;;;;;;;;;;4885113;28;20737;-58
2021/09/22 14:35:16;;;;;;;9.23;5.65;;;;;;;;;;4885365;28;20824;-58
2021/09/22 14:37:42;;;;;;;10.35;5.70;;;;;;;;;;4889907;28;20625;-58